Time;durP1;ratioP1;P1;durP2;ratioP2;P2;SDS_P1;SDS_P2;PMS_P1;PMS_P2;Temp;Humidity;BMP_temperature;BMP_pressure;BME280_temperature;BME280_humidity;BME280_pressure;Samples;Min_cycle;Max_cycle;Signal;HPM_P1;HPM_P2
2022/07/29 15:45:22;;;;;;;2.72;1.17;;;;;;;27.92;34.87;100803.58;3558706;76;21112;-70
2022/07/29 15:50:15;;;;;;;3.60;1.67;;;;;;;27.71;34.31;100798.41;3496858;78;20975;-72
2022/07/29 15:55:09;;;;;;;0.90;0.80;;;;;;;27.39;34.51;100790.28;3475507;78;20959;-70
2022/07/29 16:00:03;;;;;;;2.47;0.88;;;;;;;27.34;34.72;100784.80;3491228;78;21021;-70
2022/07/29 16:04:58;;;;;;;1.05;0.95;;;;;;;27.13;34.61;100788.06;3474405;78;21018;-70
2022/07/29 16:09:50;;;;;;;1.65;1.05;;;;;;;26.97;35.07;100791.98;3480613;79;20966;-69
2022/07/29 16:14:43;;;;;;;1.15;0.88;;;;;;;26.73;34.94;100784.75;3523576;78;21223;-69
2022/07/29 16:19:36;;;;;;;0.72;0.72;;;;;;;26.68;35.20;100789.44;3494607;79;21086;-70
2022/07/29 16:24:30;;;;;;;1.05;1.00;;;;;;;26.24;35.02;100791.48;3492588;78;21534;-70
2022/07/29 16:29:23;;;;;;;1.75;1.10;;;;;;;25.68;35.99;100784.27;3486768;78;21487;-69
2022/07/29 16:34:15;;;;;;;1.60;1.30;;;;;;;25.22;36.43;100791.13;3487417;79;20973;-69
2022/07/29 16:39:09;;;;;;;6.10;1.77;;;;;;;24.86;36.89;100794.86;3450194;79;20923;-70
2022/07/29 16:44:02;;;;;;;2.27;1.20;;;;;;;24.56;37.27;100792.55;3500032;80;20939;-70
2022/07/29 16:48:54;;;;;;;4.25;1.10;;;;;;;24.33;37.62;100797.41;3470018;80;20994;-69
2022/07/29 16:53:46;;;;;;;1.00;0.90;;;;;;;24.15;37.92;100806.95;3520519;79;21741;-69
2022/07/29 16:58:39;;;;;;;1.52;0.80;;;;;;;23.97;38.21;100802.73;3495632;78;21343;-69
2022/07/29 17:03:32;;;;;;;2.67;1.00;;;;;;;23.85;38.45;100811.62;3471426;79;20933;-69
2022/07/29 17:08:24;;;;;;;2.25;1.00;;;;;;;23.75;38.82;100816.35;3448712;78;21045;-69
2022/07/29 17:13:16;;;;;;;2.15;1.10;;;;;;;23.64;39.07;100815.88;3516424;78;21342;-69
2022/07/29 17:18:09;;;;;;;3.85;1.55;;;;;;;23.54;39.56;100816.69;3516011;79;20943;-70
2022/07/29 17:23:02;;;;;;;3.08;1.20;;;;;;;23.43;39.69;100817.06;3458864;79;21421;-70
2022/07/29 17:27:55;;;;;;;1.17;1.00;;;;;;;23.34;40.41;100812.94;3481304;78;20992;-72
2022/07/29 17:32:47;;;;;;;1.65;1.07;;;;;;;23.27;40.11;100815.40;3470844;78;21073;-70
2022/07/29 17:37:39;;;;;;;4.90;1.22;;;;;;;23.32;40.01;100816.11;3487006;78;21014;-70
2022/07/29 17:42:31;;;;;;;6.22;1.00;;;;;;;23.20;41.11;100831.97;3521518;78;20992;-70
2022/07/29 17:47:24;;;;;;;1.05;0.90;;;;;;;23.06;41.71;100826.27;3515198;79;20995;-70
2022/07/29 17:52:17;;;;;;;2.10;1.45;;;;;;;22.97;41.82;100835.35;3531269;78;20930;-70
2022/07/29 17:57:09;;;;;;;1.80;1.70;;;;;;;22.82;42.36;100826.13;3460309;79;20942;-70
2022/07/29 18:02:02;;;;;;;3.20;1.20;;;;;;;22.67;41.88;100821.30;3452257;79;21112;-70
2022/07/29 18:06:54;;;;;;;1.50;1.22;;;;;;;22.56;41.78;100818.12;3482795;79;21036;-70
2022/07/29 18:11:47;;;;;;;4.58;1.35;;;;;;;22.44;41.88;100817.57;3485941;78;21023;-68
2022/07/29 18:16:39;;;;;;;1.92;1.50;;;;;;;22.35;42.10;100824.48;3497435;79;21088;-68
2022/07/29 18:21:32;;;;;;;2.27;1.22;;;;;;;22.26;42.26;100823.41;3486781;78;21017;-68
2022/07/29 18:26:24;;;;;;;4.50;1.40;;;;;;;22.14;42.69;100825.09;3504925;78;21026;-68
2022/07/29 18:31:17;;;;;;;3.02;1.15;;;;;;;21.99;43.24;100819.33;3491619;78;20966;-68
2022/07/29 18:36:09;;;;;;;3.60;1.42;;;;;;;21.83;44.06;100819.36;3505616;78;20991;-68
2022/07/29 18:41:01;;;;;;;3.80;1.90;;;;;;;21.66;44.31;100825.99;3520494;78;21034;-68
2022/07/29 18:45:53;;;;;;;4.35;2.52;;;;;;;21.53;44.43;100825.89;3498574;78;20962;-68
2022/07/29 18:50:45;;;;;;;5.55;2.33;;;;;;;21.44;44.24;100825.64;3534989;78;20974;-68
2022/07/29 18:55:38;;;;;;;2.77;1.95;;;;;;;21.36;44.34;100828.11;3543426;78;21433;-68
2022/07/29 19:00:30;;;;;;;5.67;2.42;;;;;;;21.29;44.50;100832.22;3502427;78;20982;-68
2022/07/29 19:05:23;;;;;;;5.47;2.30;;;;;;;21.20;44.88;100835.10;3469591;78;21007;-68
2022/07/29 19:10:15;;;;;;;5.85;2.12;;;;;;;21.11;45.24;100834.02;3495243;78;20979;-68
2022/07/29 19:15:09;;;;;;;4.33;2.40;;;;;;;20.98;45.58;100837.42;3472179;78;20959;-68
2022/07/29 19:20:05;;;;;;;5.40;2.30;;;;;;;20.89;45.73;100846.43;3478904;79;21108;-68
2022/07/29 19:24:57;;;;;;;9.08;4.20;;;;;;;20.79;45.99;100846.22;3494515;79;27218;-68
2022/07/29 19:29:50;;;;;;;5.37;2.47;;;;;;;20.67;46.70;100851.78;3443565;78;22198;-68
2022/07/29 19:35:22;;;;;;;3.17;2.47;;;;;;;20.51;47.10;100856.08;3481438;78;21488;-68
2022/07/29 19:39:36;;;;;;;3.45;2.25;;;;;;;20.39;47.00;100851.06;3530676;79;21598;-68
2022/07/29 19:44:29;;;;;;;6.33;2.72;;;;;;;20.35;47.16;100841.02;3520664;78;21821;-68
2022/07/29 19:49:21;;;;;;;4.75;3.00;;;;;;;20.31;47.73;100838.45;3511669;78;20993;-68
2022/07/29 19:54:14;;;;;;;4.08;3.12;;;;;;;20.25;47.55;100834.64;3523692;79;20982;-70
2022/07/29 19:59:07;;;;;;;5.22;3.02;;;;;;;20.22;47.58;100836.02;3534995;78;20998;-70
2022/07/29 20:03:59;;;;;;;4.50;3.00;;;;;;;20.17;47.76;100827.76;3500806;80;20999;-70
2022/07/29 20:08:51;;;;;;;3.62;2.30;;;;;;;20.14;47.74;100839.69;3485334;78;21673;-69
2022/07/29 20:13:43;;;;;;;4.20;2.42;;;;;;;20.09;47.86;100845.51;3519578;79;20998;-70
2022/07/29 20:18:38;;;;;;;4.85;2.55;;;;;;;20.02;47.94;100849.17;3478116;79;21084;-70
2022/07/29 20:23:30;;;;;;;3.52;1.98;;;;;;;19.98;47.95;100858.06;3486657;78;20963;-70
2022/07/29 20:28:23;;;;;;;5.53;2.22;;;;;;;19.92;48.15;100862.12;3482578;78;21535;-70
2022/07/29 20:33:15;;;;;;;3.08;1.87;;;;;;;19.86;48.22;100859.16;3477753;79;22019;-70
2022/07/29 20:38:07;;;;;;;6.15;2.20;;;;;;;19.79;48.37;100853.13;3570096;78;21003;-70
2022/07/29 20:42:59;;;;;;;3.15;2.10;;;;;;;19.72;48.50;100846.19;3479171;79;21000;-70
2022/07/29 20:47:52;;;;;;;2.00;1.80;;;;;;;19.65;48.63;100841.92;3491163;78;20986;-70
2022/07/29 20:52:44;;;;;;;5.10;1.52;;;;;;;19.57;48.75;100833.30;3438607;79;21588;-70
2022/07/29 20:57:37;;;;;;;3.10;1.62;;;;;;;19.51;48.92;100834.72;3446736;78;22057;-69
2022/07/29 21:02:29;;;;;;;5.05;1.50;;;;;;;19.47;49.00;100830.41;3475514;80;21480;-70
2022/07/29 21:07:22;;;;;;;3.85;1.52;;;;;;;19.43;49.03;100831.77;3507460;79;21039;-70
2022/07/29 21:12:14;;;;;;;2.30;1.60;;;;;;;19.39;49.21;100827.46;3563909;78;21026;-70
2022/07/29 21:17:07;;;;;;;2.45;1.65;;;;;;;19.32;49.29;100834.20;3504159;79;21002;-69
2022/07/29 21:22:00;;;;;;;2.02;1.65;;;;;;;19.29;49.44;100833.78;3503893;80;21504;-70
2022/07/29 21:28:25;;;;;;;1.62;1.42;;;;;;;19.27;49.51;100825.03;3514313;79;21527;-70
2022/07/29 21:31:46;;;;;;;4.67;1.40;;;;;;;19.24;49.54;100830.35;3498682;80;20979;-70
2022/07/29 21:36:38;;;;;;;1.95;1.30;;;;;;;19.20;49.65;100818.99;3474200;79;21037;-70
2022/07/29 21:41:31;;;;;;;2.85;1.30;;;;;;;19.17;49.72;100810.27;3511485;79;20997;-70
2022/07/29 21:46:24;;;;;;;2.40;1.50;;;;;;;19.13;49.78;100813.86;3467455;79;20982;-70
2022/07/29 21:51:16;;;;;;;2.35;1.62;;;;;;;19.10;49.94;100815.22;3512318;79;21034;-70
2022/07/29 21:56:08;;;;;;;1.62;1.20;;;;;;;19.08;50.00;100813.06;3492191;79;21070;-70
2022/07/29 22:01:00;;;;;;;2.95;1.45;;;;;;;19.05;50.07;100815.31;3417167;79;21010;-70
2022/07/29 22:05:53;;;;;;;2.50;1.20;;;;;;;19.01;50.17;100808.33;3475312;79;21426;-69
2022/07/29 22:10:45;;;;;;;2.75;1.27;;;;;;;18.96;50.27;100812.38;3460530;80;21947;-69
2022/07/29 22:15:37;;;;;;;1.22;1.05;;;;;;;18.91;50.46;100811.58;3489294;79;21004;-70
2022/07/29 22:20:29;;;;;;;3.35;1.57;;;;;;;18.84;50.57;100812.57;3505629;79;20990;-70
2022/07/29 22:25:21;;;;;;;3.47;1.15;;;;;;;18.78;50.69;100809.98;3465523;78;21595;-70
2022/07/29 22:30:14;;;;;;;1.27;1.17;;;;;;;18.74;50.83;100798.63;3486295;79;21544;-69
2022/07/29 22:35:07;;;;;;;1.37;1.20;;;;;;;18.71;50.95;100796.06;3528303;79;21484;-71
2022/07/29 22:40:01;;;;;;;2.77;1.07;;;;;;;18.65;51.01;100794.40;3465685;79;20986;-70
2022/07/29 22:44:53;;;;;;;5.42;1.10;;;;;;;18.60;51.14;100790.96;3475250;78;21603;-70
2022/07/29 22:49:46;;;;;;;2.20;1.22;;;;;;;18.59;51.26;100798.88;3451609;78;21012;-70
2022/07/29 22:54:38;;;;;;;1.42;1.20;;;;;;;18.57;51.30;100797.58;3492370;79;20937;-70
2022/07/29 22:59:30;;;;;;;6.15;1.30;;;;;;;18.56;51.40;100798.45;3436720;80;21439;-70
2022/07/29 23:04:23;;;;;;;2.72;1.67;;;;;;;18.52;51.40;100787.55;3488244;79;21044;-70
2022/07/29 23:09:16;;;;;;;5.17;3.65;;;;;;;18.50;51.49;100784.08;3493260;80;21066;-70
2022/07/29 23:14:08;;;;;;;3.20;1.98;;;;;;;18.51;51.54;100788.47;3507679;79;21021;-70
2022/07/29 23:19:00;;;;;;;2.42;1.10;;;;;;;18.53;51.55;100784.47;3474391;79;21504;-71
2022/07/29 23:23:52;;;;;;;1.37;1.27;;;;;;;18.54;51.71;100779.64;3410344;79;23204;-70
2022/07/29 23:28:45;;;;;;;1.82;1.52;;;;;;;18.49;51.60;100779.70;3463095;79;20966;-70
2022/07/29 23:33:37;;;;;;;3.15;1.20;;;;;;;18.49;51.72;100777.06;3502229;79;21674;-70
2022/07/29 23:38:29;;;;;;;2.45;1.40;;;;;;;18.48;51.76;100774.89;3498927;79;20967;-70
2022/07/29 23:43:21;;;;;;;1.57;1.47;;;;;;;18.47;51.74;100769.22;3474852;79;20975;-70
2022/07/29 23:48:14;;;;;;;2.95;1.40;;;;;;;18.46;51.84;100766.60;3453050;80;20956;-70
2022/07/29 23:53:06;;;;;;;2.45;1.25;;;;;;;18.46;52.58;100764.83;3455422;79;21476;-70
2022/07/29 23:57:58;;;;;;;2.25;1.42;;;;;;;18.40;52.65;100767.98;3453126;80;21092;-70
